createdAt,value
2018-01-12T00:00:01.372Z,5.10
2018-01-12T00:02:29.525Z,5.30
2018-01-12T00:04:57.652Z,5.30
2018-01-12T00:07:25.777Z,5.20
2018-01-12T00:09:53.899Z,5.10
2018-01-12T00:12:22.052Z,5.20
2018-01-12T00:14:50.193Z,5.30
2018-01-12T00:17:18.339Z,5.40
2018-01-12T00:19:46.452Z,5.40
2018-01-12T00:22:14.605Z,5.30
2018-01-12T00:24:43.494Z,5.30
2018-01-12T00:27:12.435Z,5.00
2018-01-12T00:29:40.497Z,5.00
2018-01-12T00:32:08.618Z,5.20
2018-01-12T00:34:36.766Z,5.30
2018-01-12T00:37:05.163Z,5.30
2018-01-12T00:39:33.288Z,5.40
2018-01-12T00:42:01.834Z,5.60
2018-01-12T00:44:30.026Z,5.40
2018-01-12T00:46:58.895Z,5.30
2018-01-12T00:49:27.027Z,5.30
2018-01-12T00:51:55.159Z,5.30
2018-01-12T00:54:24.085Z,5.20
2018-01-12T00:56:52.192Z,5.20
2018-01-12T00:59:20.343Z,5.10
2018-01-12T01:01:48.462Z,5.30
2018-01-12T01:04:17.359Z,5.40
2018-01-12T01:06:46.248Z,5.40
2018-01-12T01:09:15.152Z,5.50
2018-01-12T01:11:44.030Z,5.50
2018-01-12T01:14:12.924Z,5.60
2018-01-12T01:16:41.812Z,5.40
2018-01-12T01:19:10.715Z,5.40
2018-01-12T01:21:38.836Z,5.40
2018-01-12T01:24:07.063Z,5.50
2018-01-12T01:26:35.172Z,5.60
2018-01-12T01:29:03.605Z,5.60
2018-01-12T01:31:32.494Z,5.60
2018-01-12T01:34:01.402Z,5.60
2018-01-12T01:36:29.516Z,5.60
2018-01-12T01:38:57.637Z,5.70
2018-01-12T01:41:26.531Z,5.70
2018-01-12T01:43:55.416Z,5.70
2018-01-12T01:46:24.317Z,5.70
2018-01-12T01:48:53.220Z,5.70
2018-01-12T01:51:21.367Z,5.70
2018-01-12T01:53:50.246Z,5.70
2018-01-12T01:56:18.409Z,5.70
2018-01-12T01:58:46.520Z,5.80
2018-01-12T02:01:14.655Z,5.80
2018-01-12T02:03:42.769Z,5.70
2018-01-12T02:06:10.918Z,5.60
2018-01-12T02:08:39.020Z,5.60
2018-01-12T02:11:07.150Z,5.50
2018-01-12T02:13:35.270Z,5.50
2018-01-12T02:16:03.424Z,5.60
2018-01-12T02:18:32.292Z,5.60
2018-01-12T02:21:00.423Z,5.60
2018-01-12T02:23:28.534Z,5.70
2018-01-12T02:25:56.663Z,5.80
2018-01-12T02:28:24.799Z,5.70
2018-01-12T02:30:53.697Z,5.80
2018-01-12T02:33:22.584Z,5.90
2018-01-12T02:35:51.499Z,5.90
2018-01-12T02:38:19.616Z,5.90
2018-01-12T02:40:47.765Z,5.80
2018-01-12T02:43:15.885Z,5.70
2018-01-12T02:45:44.034Z,5.60
2018-01-12T02:48:12.162Z,5.70
2018-01-12T02:50:40.290Z,5.70
2018-01-12T02:53:08.424Z,5.60
2018-01-12T02:55:37.321Z,5.60
2018-01-12T02:58:05.467Z,5.50
2018-01-12T03:00:33.578Z,5.60
2018-01-12T03:03:01.732Z,5.70
2018-01-12T03:05:29.856Z,5.70
2018-01-12T03:07:57.984Z,5.60
2018-01-12T03:10:26.107Z,5.70
2018-01-12T03:12:54.243Z,5.80
2018-01-12T03:15:22.355Z,6.00
2018-01-12T03:17:51.261Z,6.10
2018-01-12T03:20:20.134Z,6.10
2018-01-12T03:22:48.273Z,6.00
2018-01-12T03:25:16.380Z,6.00
2018-01-12T03:27:44.516Z,6.00
2018-01-12T03:30:12.639Z,5.90
2018-01-12T03:32:41.543Z,5.80
2018-01-12T03:35:09.695Z,5.80
2018-01-12T03:37:38.604Z,5.90
2018-01-12T03:40:07.496Z,5.90
2018-01-12T03:42:36.392Z,5.90
2018-01-12T03:45:05.384Z,5.80
2018-01-12T03:47:34.286Z,5.70
2018-01-12T03:50:02.913Z,5.70
2018-01-12T03:52:31.173Z,5.60
2018-01-12T03:54:59.284Z,5.70
2018-01-12T03:57:27.411Z,5.70
2018-01-12T03:59:56.305Z,5.80
2018-01-12T04:02:24.437Z,5.70
2018-01-12T04:04:53.320Z,5.70
2018-01-12T04:07:22.241Z,5.80
2018-01-12T04:09:50.353Z,5.80
2018-01-12T04:12:18.521Z,5.80
2018-01-12T04:14:46.643Z,5.60
2018-01-12T04:17:15.535Z,5.50
2018-01-12T04:19:44.425Z,5.50
2018-01-12T04:22:13.329Z,5.60
2018-01-12T04:24:41.441Z,5.60
2018-01-12T04:27:10.360Z,5.60
2018-01-12T04:29:38.579Z,5.60
2018-01-12T04:32:06.685Z,5.80
2018-01-12T04:34:34.813Z,5.90
2018-01-12T04:37:03.211Z,6.00
2018-01-12T04:39:31.384Z,6.00
2018-01-12T04:41:59.495Z,6.00
2018-01-12T04:44:27.632Z,6.10
2018-01-12T04:46:55.739Z,6.20
2018-01-12T04:49:24.153Z,6.20
2018-01-12T04:51:52.335Z,6.10
2018-01-12T04:54:20.898Z,6.00
2018-01-12T04:56:49.797Z,6.00
2018-01-12T04:59:18.751Z,6.00
2018-01-12T05:01:46.876Z,5.90
2018-01-12T05:04:15.023Z,6.10
2018-01-12T05:06:43.146Z,6.10
2018-01-12T05:09:11.288Z,6.10
2018-01-12T05:11:40.172Z,6.10
2018-01-12T05:14:09.092Z,6.10
2018-01-12T05:16:37.834Z,6.10
2018-01-12T05:19:06.890Z,6.00
2018-01-12T05:21:35.021Z,6.00
2018-01-12T05:24:04.214Z,6.00
2018-01-12T05:26:33.098Z,6.10
2018-01-12T05:29:01.380Z,6.00
2018-01-12T05:31:29.783Z,6.00
2018-01-12T05:33:57.934Z,6.00
2018-01-12T05:36:26.822Z,6.00
2018-01-12T05:38:54.965Z,6.00
2018-01-12T05:41:23.084Z,6.20
2018-01-12T05:43:52.025Z,6.00
2018-01-12T05:46:20.144Z,5.90
2018-01-12T05:48:49.059Z,5.90
2018-01-12T05:51:17.194Z,5.80
2018-01-12T05:53:46.090Z,5.80
2018-01-12T05:56:14.219Z,5.80
2018-01-12T05:58:42.348Z,5.80
2018-01-12T06:01:23.074Z,6.00
2018-01-12T06:04:02.916Z,5.90
2018-01-12T06:06:31.065Z,5.80
2018-01-12T06:08:59.181Z,5.70
2018-01-12T06:11:27.346Z,5.60
2018-01-12T06:13:55.475Z,5.70
2018-01-12T06:16:23.623Z,5.70
2018-01-12T06:18:52.513Z,6.00
2018-01-12T06:21:21.417Z,6.20
2018-01-12T06:23:50.289Z,6.30
2018-01-12T06:26:18.416Z,6.20
2018-01-12T06:28:46.526Z,6.20
2018-01-12T06:31:14.659Z,6.20
2018-01-12T06:33:42.787Z,6.00
2018-01-12T06:36:10.906Z,5.80
2018-01-12T06:38:39.772Z,5.80
2018-01-12T06:41:07.910Z,5.80
2018-01-12T06:43:36.018Z,5.80
2018-01-12T06:46:04.303Z,5.70
2018-01-12T06:48:32.466Z,5.80
2018-01-12T06:51:00.635Z,5.70
2018-01-12T06:53:28.769Z,5.80
2018-01-12T06:55:56.995Z,5.80
2018-01-12T06:58:25.147Z,5.90
2018-01-12T07:00:53.326Z,5.90
2018-01-12T07:03:23.351Z,5.90
2018-01-12T07:05:51.630Z,5.90
2018-01-12T07:08:19.931Z,5.90
2018-01-12T07:10:48.082Z,6.00
2018-01-12T07:13:16.281Z,6.00
2018-01-12T07:15:44.524Z,6.00
2018-01-12T07:18:13.570Z,5.90
2018-01-12T07:20:53.644Z,5.90
2018-01-12T07:23:33.569Z,5.90
2018-01-12T07:26:02.259Z,5.80
2018-01-12T07:28:30.429Z,5.80
2018-01-12T07:30:58.577Z,5.90
2018-01-12T07:33:26.716Z,5.90
2018-01-12T07:35:54.856Z,5.90
2018-01-12T07:38:22.960Z,5.80
2018-01-12T07:40:51.091Z,5.80
2018-01-12T07:43:19.189Z,5.90
2018-01-12T07:45:47.334Z,5.90
2018-01-12T07:48:15.431Z,5.90
2018-01-12T07:53:21.825Z,6.10
2018-01-12T07:55:50.400Z,6.10
2018-01-12T07:58:18.519Z,6.20
2018-01-12T08:00:52.408Z,6.30
2018-01-12T08:03:20.538Z,6.40
2018-01-12T08:05:48.674Z,6.50
2018-01-12T08:08:17.569Z,6.50
2018-01-12T08:10:46.365Z,6.50
2018-01-12T08:13:14.502Z,6.40
2018-01-12T08:15:42.630Z,6.40
2018-01-12T08:18:10.923Z,6.30
2018-01-12T08:20:39.114Z,6.30
2018-01-12T08:23:07.236Z,6.30
2018-01-12T08:25:35.365Z,6.30
2018-01-12T08:28:04.059Z,6.20
2018-01-12T08:30:32.196Z,6.20
2018-01-12T08:33:01.063Z,6.00
2018-01-12T08:35:29.181Z,6.00
2018-01-12T08:37:57.297Z,5.90
2018-01-12T08:40:26.193Z,6.00
2018-01-12T08:42:54.293Z,6.00
2018-01-12T08:45:22.432Z,6.10
2018-01-12T08:47:51.292Z,6.60
2018-01-12T08:50:19.423Z,6.60
2018-01-12T08:52:47.545Z,6.50
2018-01-12T08:55:15.649Z,6.50
2018-01-12T08:57:43.784Z,6.50
2018-01-12T09:00:11.886Z,6.60
2018-01-12T09:02:42.746Z,6.70
2018-01-12T09:05:10.848Z,6.70
2018-01-12T09:07:38.985Z,6.80
2018-01-12T09:10:07.081Z,6.80
2018-01-12T09:12:35.209Z,6.80
2018-01-12T09:15:21.925Z,7.10
2018-01-12T09:17:50.816Z,6.90
2018-01-12T09:20:19.686Z,7.00
2018-01-12T09:22:47.821Z,7.00
2018-01-12T09:25:26.358Z,7.00
2018-01-12T09:27:54.481Z,7.10
2018-01-12T09:30:22.592Z,7.10
2018-01-12T09:32:52.258Z,7.10
2018-01-12T09:35:21.173Z,7.00
2018-01-12T09:38:01.488Z,7.00
2018-01-12T09:40:31.508Z,7.10
2018-01-12T09:42:59.644Z,7.10
2018-01-12T09:45:27.753Z,7.00
2018-01-12T09:48:07.813Z,7.00
2018-01-12T09:50:35.918Z,7.10
2018-01-12T09:53:04.057Z,7.00
2018-01-12T09:55:32.225Z,7.10
2018-01-12T09:58:00.317Z,7.10
2018-01-12T10:00:40.975Z,7.00
2018-01-12T10:03:09.101Z,6.90
2018-01-12T10:05:37.230Z,6.80
2018-01-12T10:08:05.469Z,7.00
2018-01-12T10:10:33.588Z,7.10
2018-01-12T10:13:02.495Z,7.20
2018-01-12T10:15:30.644Z,7.20
2018-01-12T10:17:58.828Z,7.20
2018-01-12T10:20:29.802Z,7.20
2018-01-12T10:22:57.955Z,7.20
2018-01-12T10:25:26.064Z,7.00
2018-01-12T10:27:54.199Z,7.00
2018-01-12T10:30:39.122Z,6.90
2018-01-12T10:33:08.162Z,7.00
2018-01-12T10:35:54.990Z,7.10
2018-01-12T10:38:23.162Z,7.10
2018-01-12T10:40:54.164Z,7.10
2018-01-12T10:43:23.074Z,7.30
2018-01-12T10:46:08.486Z,7.30
2018-01-12T10:48:46.514Z,7.40
2018-01-12T10:51:20.542Z,7.50
2018-01-12T10:53:48.679Z,7.60
2018-01-12T10:56:16.806Z,7.60
2018-01-12T10:58:45.773Z,7.50
2018-01-12T11:01:13.886Z,7.50
2018-01-12T11:03:42.039Z,7.60
2018-01-12T11:06:10.922Z,7.70
2018-01-12T11:08:39.069Z,7.70
2018-01-12T11:11:07.184Z,7.40
2018-01-12T11:13:36.104Z,7.30
2018-01-12T11:16:04.228Z,7.20
2018-01-12T11:18:32.370Z,7.30
2018-01-12T11:21:00.479Z,7.30
2018-01-12T11:23:28.616Z,7.30
2018-01-12T11:25:56.741Z,7.20
2018-01-12T11:28:25.923Z,7.10
2018-01-12T11:30:54.036Z,7.10
2018-01-12T11:33:22.178Z,7.10
2018-01-12T11:35:50.290Z,7.40
2018-01-12T11:38:18.418Z,7.50
2018-01-12T11:40:46.532Z,7.60
2018-01-12T11:43:14.662Z,7.50
2018-01-12T11:45:42.779Z,7.50
2018-01-12T11:48:10.910Z,7.60
2018-01-12T11:50:39.023Z,7.70
2018-01-12T11:53:07.171Z,7.50
2018-01-12T11:55:35.284Z,7.40
2018-01-12T11:58:03.699Z,7.10
2018-01-12T12:00:31.925Z,7.20
2018-01-12T12:03:00.057Z,7.50
2018-01-12T12:05:28.945Z,7.80
2018-01-12T12:07:57.044Z,7.80
2018-01-12T12:10:25.954Z,7.60
2018-01-12T12:12:54.055Z,7.60
2018-01-12T12:15:22.196Z,7.60
2018-01-12T12:17:50.303Z,7.70
2018-01-12T12:20:18.446Z,7.70
2018-01-12T12:22:46.547Z,7.70
2018-01-12T12:25:14.690Z,7.70
2018-01-12T12:27:42.804Z,7.60
2018-01-12T12:30:10.936Z,7.60
2018-01-12T12:32:39.056Z,7.50
2018-01-12T12:35:07.843Z,7.50
2018-01-12T12:37:36.065Z,7.70
2018-01-12T12:40:04.275Z,7.50
2018-01-12T12:42:32.380Z,7.40
2018-01-12T12:45:00.516Z,7.40
2018-01-12T12:47:28.760Z,7.50
2018-01-12T12:49:57.664Z,7.70
2018-01-12T12:52:25.785Z,7.70
2018-01-12T12:54:53.926Z,7.70
2018-01-12T12:57:22.044Z,7.70
2018-01-12T12:59:50.180Z,7.60
2018-01-12T13:02:18.303Z,7.60
2018-01-12T13:04:46.432Z,7.60
2018-01-12T13:07:14.550Z,7.60
2018-01-12T13:09:42.683Z,7.60
2018-01-12T13:12:10.803Z,7.60
2018-01-12T13:14:39.693Z,7.80
2018-01-12T13:17:08.568Z,7.80
2018-01-12T13:19:36.698Z,7.80
2018-01-12T13:22:04.808Z,7.70
2018-01-12T13:24:32.962Z,7.80
2018-01-12T13:27:01.080Z,7.80
2018-01-12T13:29:29.260Z,7.80
2018-01-12T13:31:58.141Z,7.70
2018-01-12T13:34:27.044Z,7.60
2018-01-12T13:36:55.931Z,7.50
2018-01-12T13:39:24.819Z,7.50
2018-01-12T13:41:53.708Z,7.40
2018-01-12T13:44:22.633Z,7.30
2018-01-12T13:46:50.747Z,7.30
2018-01-12T13:49:18.889Z,7.40
2018-01-12T13:51:47.010Z,7.50
2018-01-12T13:54:15.142Z,7.70
2018-01-12T13:56:43.252Z,7.70
2018-01-12T13:59:12.149Z,7.70
2018-01-12T14:01:41.030Z,7.70
2018-01-12T14:04:09.149Z,7.70
2018-01-12T14:06:37.257Z,7.80
2018-01-12T14:09:05.377Z,7.60
2018-01-12T14:11:33.498Z,7.60
2018-01-12T14:14:01.726Z,7.50
2018-01-12T14:16:30.832Z,7.50
2018-01-12T14:18:59.707Z,7.50
2018-01-12T14:21:28.591Z,7.60
2018-01-12T14:23:57.486Z,7.70
2018-01-12T14:26:26.369Z,7.70
2018-01-12T14:28:55.271Z,7.70
2018-01-12T14:31:24.146Z,7.70
2018-01-12T14:33:53.046Z,7.70
2018-01-12T14:36:21.917Z,7.80
2018-01-12T14:38:50.069Z,7.80
2018-01-12T14:41:18.188Z,7.70
2018-01-12T14:43:47.094Z,7.60
2018-01-12T14:46:15.883Z,7.60
2018-01-12T14:48:43.984Z,7.60
2018-01-12T14:51:12.133Z,7.50
2018-01-12T14:53:40.256Z,7.40
2018-01-12T14:56:08.388Z,7.30
2018-01-12T14:58:36.523Z,7.00
2018-01-12T15:01:05.460Z,6.80
2018-01-12T15:03:33.575Z,6.80
2018-01-12T15:06:02.046Z,7.10
2018-01-12T15:08:30.279Z,7.30
2018-01-12T15:10:58.418Z,7.30
2018-01-12T15:13:26.660Z,7.40
2018-01-12T15:15:54.868Z,7.40
2018-01-12T15:18:23.747Z,7.30
2018-01-12T15:20:51.883Z,7.30
2018-01-12T15:23:20.000Z,7.10
2018-01-12T15:25:48.124Z,6.90
2018-01-12T15:28:16.251Z,7.00
2018-01-12T15:30:45.302Z,6.80
2018-01-12T15:33:15.043Z,6.80
2018-01-12T15:35:43.271Z,6.80
2018-01-12T15:38:12.837Z,6.80
2018-01-12T15:40:41.937Z,6.80
2018-01-12T15:43:10.812Z,6.80
2018-01-12T15:45:39.018Z,6.70
2018-01-12T15:48:07.128Z,6.80
2018-01-12T15:50:35.507Z,6.80
2018-01-12T15:53:04.651Z,6.70
2018-01-12T15:55:32.998Z,6.70
2018-01-12T15:58:01.109Z,6.50
2018-01-12T16:00:29.346Z,6.40
2018-01-12T16:02:57.581Z,6.40
2018-01-12T16:05:25.714Z,6.50
2018-01-12T16:07:53.841Z,6.40
2018-01-12T16:10:21.998Z,6.40
2018-01-12T16:12:50.104Z,6.40
2018-01-12T16:15:18.232Z,6.40
2018-01-12T16:17:46.344Z,6.60
2018-01-12T16:20:14.484Z,6.60
2018-01-12T16:22:43.454Z,6.50
2018-01-12T16:25:12.353Z,6.60
2018-01-12T16:27:41.326Z,6.70
2018-01-12T16:30:09.490Z,6.70
2018-01-12T16:32:37.738Z,6.80
2018-01-12T16:35:05.842Z,6.90
2018-01-12T16:37:34.197Z,6.80
2018-01-12T16:40:02.372Z,6.90
2018-01-12T16:42:30.518Z,6.90
2018-01-12T16:44:59.171Z,6.90
2018-01-12T16:47:27.833Z,7.00
2018-01-12T16:49:57.103Z,7.00
2018-01-12T16:52:25.311Z,7.00
2018-01-12T16:54:53.498Z,7.20
2018-01-12T16:57:21.670Z,7.20
2018-01-12T16:59:49.793Z,7.00
2018-01-12T17:02:17.954Z,7.00
2018-01-12T17:04:46.181Z,6.80
2018-01-12T17:07:14.410Z,6.90
2018-01-12T17:09:42.572Z,7.10
2018-01-12T17:12:11.782Z,7.10
2018-01-12T17:14:39.933Z,7.00
2018-01-12T17:17:08.173Z,6.90
2018-01-12T17:19:37.094Z,6.90
2018-01-12T17:22:06.044Z,6.70
2018-01-12T17:24:34.141Z,6.70
2018-01-12T17:27:04.901Z,6.60
2018-01-12T17:29:33.764Z,6.40
2018-01-12T17:32:02.693Z,6.30
2018-01-12T17:34:30.911Z,6.30
2018-01-12T17:36:59.159Z,6.50
2018-01-12T17:39:27.286Z,6.60
2018-01-12T17:41:55.421Z,6.50
2018-01-12T17:44:23.529Z,6.40
2018-01-12T17:46:51.675Z,6.50
2018-01-12T17:49:19.802Z,6.60
2018-01-12T17:51:48.694Z,6.60
2018-01-12T17:54:17.706Z,6.50
2018-01-12T17:56:45.850Z,6.50
2018-01-12T17:59:14.766Z,6.50
2018-01-12T18:01:42.928Z,6.50
2018-01-12T18:04:11.810Z,6.40
2018-01-12T18:06:40.701Z,6.40
2018-01-12T18:09:09.673Z,6.40
2018-01-12T18:11:37.791Z,6.30
2018-01-12T18:14:05.912Z,6.30
2018-01-12T18:16:34.274Z,6.20
2018-01-12T18:19:02.775Z,6.30
2018-01-12T18:21:31.163Z,6.30
2018-01-12T18:23:59.265Z,6.30
2018-01-12T18:26:27.569Z,6.30
2018-01-12T18:28:55.841Z,6.30
2018-01-12T18:31:23.999Z,6.40
2018-01-12T18:33:52.334Z,6.40
2018-01-12T18:36:20.594Z,6.40
2018-01-12T18:38:48.726Z,6.40
2018-01-12T18:41:16.851Z,6.40
2018-01-12T18:43:44.965Z,6.50
2018-01-12T18:46:13.105Z,6.50
2018-01-12T18:48:41.224Z,6.50
2018-01-12T18:51:09.348Z,6.40
2018-01-12T18:53:37.476Z,6.40
2018-01-12T18:56:05.593Z,6.30
2018-01-12T18:58:33.709Z,6.30
2018-01-12T19:01:02.236Z,6.40
2018-01-12T19:03:30.546Z,6.40
2018-01-12T19:05:58.785Z,6.40
2018-01-12T19:08:27.574Z,6.50
2018-01-12T19:10:55.685Z,6.50
2018-01-12T19:13:23.849Z,6.50
2018-01-12T19:15:51.987Z,6.40
2018-01-12T19:18:20.096Z,6.50
2018-01-12T19:20:48.962Z,6.60
2018-01-12T19:23:17.129Z,6.80
2018-01-12T19:25:45.269Z,6.90
2018-01-12T19:28:13.414Z,6.90
2018-01-12T19:30:41.617Z,6.90
2018-01-12T19:33:09.746Z,6.80
2018-01-12T19:35:37.877Z,6.80
2018-01-12T19:38:06.001Z,6.60
2018-01-12T19:40:34.141Z,6.60
2018-01-12T19:43:02.242Z,6.50
2018-01-12T19:45:30.354Z,6.60
2018-01-12T19:47:59.248Z,6.70
2018-01-12T19:50:27.358Z,6.70
2018-01-12T19:52:55.484Z,6.80
2018-01-12T19:55:24.380Z,6.90
2018-01-12T19:57:53.284Z,6.90
2018-01-12T20:00:21.398Z,6.80
2018-01-12T20:02:49.534Z,6.80
2018-01-12T20:05:19.133Z,6.70
2018-01-12T20:07:47.287Z,6.70
2018-01-12T20:10:16.196Z,6.70
2018-01-12T20:12:44.559Z,6.70
2018-01-12T20:15:12.691Z,6.70
2018-01-12T20:17:41.054Z,6.70
2018-01-12T20:20:09.176Z,6.70
2018-01-12T20:22:37.347Z,6.70
2018-01-12T20:25:05.715Z,6.70
2018-01-12T20:27:33.868Z,6.70
2018-01-12T20:30:02.386Z,6.70
2018-01-12T20:32:30.651Z,6.60
2018-01-12T20:34:58.738Z,6.70
2018-01-12T20:37:26.884Z,6.60
2018-01-12T20:39:55.031Z,6.50
2018-01-12T20:42:23.174Z,6.40
2018-01-12T20:44:52.091Z,6.40
2018-01-12T20:47:20.245Z,6.40
2018-01-12T20:49:49.158Z,6.20
2018-01-12T20:52:17.342Z,6.20
2018-01-12T20:54:45.464Z,6.10
2018-01-12T20:57:13.651Z,6.20
2018-01-12T20:59:42.526Z,6.40
2018-01-12T21:02:10.755Z,6.40
2018-01-12T21:04:38.931Z,6.40
2018-01-12T21:07:07.843Z,6.70
2018-01-12T21:09:35.979Z,6.60
2018-01-12T21:12:04.543Z,6.60
2018-01-12T21:14:33.515Z,6.40
2018-01-12T21:17:03.095Z,6.50
2018-01-12T21:19:31.801Z,6.50
2018-01-12T21:21:59.945Z,6.60
2018-01-12T21:24:28.094Z,6.70
2018-01-12T21:26:57.001Z,6.80
2018-01-12T21:29:25.119Z,6.70
2018-01-12T21:31:53.283Z,6.70
2018-01-12T21:34:21.388Z,6.70
2018-01-12T21:36:50.287Z,6.60
2018-01-12T21:39:19.243Z,6.60
2018-01-12T21:41:47.736Z,6.60
2018-01-12T21:44:17.838Z,6.60
2018-01-12T21:46:45.969Z,6.60
2018-01-12T21:49:14.166Z,6.70
2018-01-12T21:51:42.286Z,6.60
2018-01-12T21:54:10.397Z,6.50
2018-01-12T21:56:38.525Z,6.50
2018-01-12T21:59:06.633Z,6.50
2018-01-12T22:01:34.795Z,6.50
2018-01-12T22:04:03.081Z,6.30
2018-01-12T22:06:31.243Z,6.30
2018-01-12T22:09:00.121Z,6.30
2018-01-12T22:11:28.262Z,6.30
2018-01-12T22:13:56.375Z,6.30
2018-01-12T22:16:25.285Z,6.50
2018-01-12T22:18:53.385Z,6.50
2018-01-12T22:21:21.542Z,6.60
2018-01-12T22:23:49.637Z,6.60
2018-01-12T22:26:17.745Z,6.50
2018-01-12T22:28:45.888Z,6.50
2018-01-12T22:31:14.004Z,6.60
2018-01-12T22:33:42.906Z,6.60
2018-01-12T22:36:11.774Z,6.70
2018-01-12T22:38:39.902Z,6.60
2018-01-12T22:41:08.020Z,6.70
2018-01-12T22:43:36.142Z,6.70
2018-01-12T22:46:04.241Z,6.80
2018-01-12T22:48:32.371Z,6.80
2018-01-12T22:51:00.479Z,6.70
2018-01-12T22:53:28.785Z,6.60
2018-01-12T22:55:56.889Z,6.60
2018-01-12T22:58:25.010Z,6.60
2018-01-12T23:00:53.117Z,6.70
2018-01-12T23:03:22.016Z,6.40
2018-01-12T23:05:50.882Z,6.30
2018-01-12T23:08:19.019Z,6.30
2018-01-12T23:10:47.134Z,6.40
2018-01-12T23:13:15.271Z,6.30
2018-01-12T23:15:43.371Z,6.40
2018-01-12T23:18:11.486Z,6.50
2018-01-12T23:20:40.356Z,6.50
2018-01-12T23:23:08.507Z,6.50
2018-01-12T23:25:36.613Z,6.50
2018-01-12T23:28:04.733Z,6.60
2018-01-12T23:30:32.854Z,6.50
2018-01-12T23:33:00.979Z,6.40
2018-01-12T23:35:29.082Z,6.20
2018-01-12T23:37:57.205Z,6.20
2018-01-12T23:40:26.102Z,6.20
2018-01-12T23:42:54.230Z,6.30
2018-01-12T23:45:22.354Z,6.60
2018-01-12T23:47:50.489Z,6.60
2018-01-12T23:50:18.597Z,6.60
2018-01-12T23:52:46.729Z,6.60
2018-01-12T23:55:14.825Z,6.50
2018-01-12T23:57:43.712Z,6.40
